createdAt,value
2018-03-21T00:02:07.665Z,90.32
2018-03-21T00:04:35.299Z,83.33
2018-03-21T00:07:03.504Z,83.77
2018-03-21T00:09:31.080Z,83.87
2018-03-21T00:11:58.619Z,81.37
2018-03-21T00:14:26.427Z,83.28
2018-03-21T00:16:53.968Z,77.53
2018-03-21T00:19:21.520Z,84.60
2018-03-21T00:21:49.357Z,84.77
2018-03-21T00:24:17.121Z,89.70
2018-03-21T00:26:44.680Z,88.30
2018-03-21T00:29:12.280Z,91.43
2018-03-21T00:31:39.824Z,86.10
2018-03-21T00:34:07.375Z,84.10
2018-03-21T00:36:34.966Z,78.50
2018-03-21T00:39:02.504Z,86.97
2018-03-21T00:41:30.043Z,90.27
2018-03-21T00:43:57.627Z,87.97
2018-03-21T00:46:25.175Z,92.40
2018-03-21T00:48:52.720Z,78.83
2018-03-21T00:51:20.568Z,87.03
2018-03-21T00:53:48.276Z,85.43
2018-03-21T00:56:16.474Z,79.67
2018-03-21T00:58:44.047Z,86.30
2018-03-21T01:01:11.591Z,85.45
2018-03-21T01:03:39.388Z,87.97
2018-03-21T01:06:07.007Z,78.97
2018-03-21T01:08:34.572Z,88.70
2018-03-21T01:11:02.192Z,88.80
2018-03-21T01:13:29.829Z,89.97
2018-03-21T01:15:57.416Z,94.37
2018-03-21T01:18:25.075Z,90.47
2018-03-21T01:20:52.732Z,95.13
2018-03-21T01:23:20.340Z,106.15
2018-03-21T01:25:47.952Z,104.40
2018-03-21T01:28:16.688Z,102.65
2018-03-21T01:30:44.323Z,93.07
2018-03-21T01:33:11.956Z,108.93
2018-03-21T01:35:40.529Z,108.68
2018-03-21T01:38:08.840Z,103.63
2018-03-21T01:40:36.413Z,110.00
2018-03-21T01:43:03.986Z,109.93
2018-03-21T01:45:31.600Z,104.60
2018-03-21T01:47:59.191Z,93.53
2018-03-21T01:50:26.762Z,94.33
2018-03-21T01:53:05.960Z,91.07
2018-03-21T01:55:34.464Z,90.75
2018-03-21T01:58:02.004Z,91.50
2018-03-21T02:00:29.551Z,86.32
2018-03-21T02:02:57.895Z,87.27
2018-03-21T02:05:25.680Z,99.37
2018-03-21T02:07:53.227Z,89.83
2018-03-21T02:10:20.810Z,84.30
2018-03-21T02:12:48.347Z,93.93
2018-03-21T02:15:16.548Z,84.05
2018-03-21T02:17:44.427Z,82.70
2018-03-21T02:20:11.978Z,86.10
2018-03-21T02:22:40.292Z,83.12
2018-03-21T02:25:07.871Z,78.10
2018-03-21T02:27:35.488Z,83.32
2018-03-21T02:30:03.020Z,77.07
2018-03-21T02:32:30.596Z,76.33
2018-03-21T02:34:58.164Z,84.83
2018-03-21T02:37:25.720Z,79.35
2018-03-21T02:39:53.858Z,81.40
2018-03-21T02:42:21.408Z,78.43
2018-03-21T02:44:48.947Z,74.30
2018-03-21T02:47:16.513Z,74.70
2018-03-21T02:49:44.057Z,73.30
2018-03-21T02:52:11.607Z,78.93
2018-03-21T02:54:39.208Z,60.40
2018-03-21T02:57:06.747Z,67.80
2018-03-21T02:59:34.304Z,64.70
2018-03-21T03:02:02.688Z,59.47
2018-03-21T03:04:30.241Z,60.43
2018-03-21T03:06:58.183Z,58.93
2018-03-21T03:09:25.775Z,60.17
2018-03-21T03:11:53.319Z,62.87
2018-03-21T03:14:20.856Z,55.10
2018-03-21T03:16:49.186Z,64.35
2018-03-21T03:19:16.735Z,56.30
2018-03-21T03:21:44.294Z,53.23
2018-03-21T03:24:12.259Z,56.10
2018-03-21T03:26:39.800Z,55.80
2018-03-21T03:29:07.348Z,59.53
2018-03-21T03:31:34.934Z,57.57
2018-03-21T03:34:02.475Z,59.53
2018-03-21T03:36:30.011Z,54.27
2018-03-21T03:38:57.580Z,59.03
2018-03-21T03:41:25.118Z,65.80
2018-03-21T03:43:52.659Z,60.03
2018-03-21T03:46:20.544Z,56.17
2018-03-21T03:48:48.083Z,62.93
2018-03-21T03:51:16.485Z,64.18
2018-03-21T03:53:44.068Z,67.57
2018-03-21T03:56:11.619Z,65.72
2018-03-21T03:58:39.927Z,63.97
2018-03-21T04:01:07.498Z,69.50
2018-03-21T04:03:35.048Z,66.87
2018-03-21T04:06:02.592Z,71.60
2018-03-21T04:08:30.710Z,73.23
2018-03-21T04:10:58.263Z,61.80
2018-03-21T04:13:25.827Z,68.10
2018-03-21T04:15:53.394Z,68.23
2018-03-21T04:18:20.931Z,65.20
2018-03-21T04:20:48.470Z,72.05
2018-03-21T04:23:16.487Z,64.53
2018-03-21T04:25:44.010Z,63.83
2018-03-21T04:28:11.551Z,59.42
2018-03-21T04:30:39.597Z,62.40
2018-03-21T04:33:07.144Z,56.10
2018-03-21T04:35:34.700Z,60.10
2018-03-21T04:38:02.275Z,59.10
2018-03-21T04:40:29.839Z,63.00
2018-03-21T04:42:57.374Z,56.70
2018-03-21T04:45:24.939Z,54.70
2018-03-21T04:47:52.479Z,57.97
2018-03-21T04:50:20.027Z,54.15
2018-03-21T04:52:47.891Z,52.50
2018-03-21T04:55:16.475Z,46.13
2018-03-21T04:57:44.011Z,40.30
2018-03-21T05:00:12.345Z,47.80
2018-03-21T05:02:39.887Z,46.83
2018-03-21T05:05:07.458Z,45.35
2018-03-21T05:07:35.023Z,49.53
2018-03-21T05:10:03.040Z,50.00
2018-03-21T05:12:30.604Z,45.40
2018-03-21T05:14:58.477Z,49.13
2018-03-21T05:17:26.023Z,51.87
2018-03-21T05:19:53.566Z,45.00
2018-03-21T05:22:21.144Z,38.03
2018-03-21T05:24:48.687Z,42.60
2018-03-21T05:27:16.532Z,39.00
2018-03-21T05:29:44.095Z,42.13
2018-03-21T05:32:11.644Z,40.80
2018-03-21T05:34:39.200Z,42.47
2018-03-21T05:37:07.411Z,39.73
2018-03-21T05:39:34.979Z,41.70
2018-03-21T05:42:02.521Z,41.27
2018-03-21T05:44:30.086Z,44.40
2018-03-21T05:46:57.627Z,34.90
2018-03-21T05:49:25.175Z,38.45
2018-03-21T05:51:52.738Z,39.53
2018-03-21T05:54:20.279Z,37.78
2018-03-21T05:56:47.821Z,39.30
2018-03-21T05:59:16.554Z,33.42
2018-03-21T06:01:44.101Z,31.60
2018-03-21T06:04:11.640Z,36.43
2018-03-21T06:06:39.224Z,29.50
2018-03-21T06:09:06.770Z,29.30
2018-03-21T06:11:34.765Z,30.23
2018-03-21T06:14:02.333Z,21.03
2018-03-21T06:16:29.939Z,35.93
2018-03-21T06:18:57.526Z,27.40
2018-03-21T06:21:25.153Z,20.33
2018-03-21T06:23:52.701Z,34.03
2018-03-21T06:26:21.010Z,28.42
2018-03-21T06:28:48.575Z,27.73
2018-03-21T06:31:16.438Z,25.57
2018-03-21T06:33:43.988Z,23.57
2018-03-21T06:36:11.559Z,26.15
2018-03-21T06:38:39.107Z,26.00
2018-03-21T06:41:06.657Z,23.03
2018-03-21T06:43:34.253Z,23.53
2018-03-21T06:46:01.871Z,25.73
2018-03-21T06:48:30.494Z,23.40
2018-03-21T06:50:58.259Z,29.77
2018-03-21T06:53:25.805Z,21.80
2018-03-21T06:55:53.353Z,22.20
2018-03-21T06:58:20.930Z,22.40
2018-03-21T07:00:48.533Z,22.15
2018-03-21T07:03:16.422Z,24.70
2018-03-21T07:05:44.821Z,23.20
2018-03-21T07:08:12.361Z,25.88
2018-03-21T07:10:39.949Z,19.20
2018-03-21T07:13:08.272Z,21.60
2018-03-21T07:15:47.901Z,16.87
2018-03-21T07:18:17.295Z,17.23
2018-03-21T07:20:44.838Z,19.37
2018-03-21T07:23:12.416Z,14.32
2018-03-21T07:25:40.416Z,14.47
2018-03-21T07:28:08.016Z,21.40
2018-03-21T07:30:35.830Z,18.23
2018-03-21T07:33:04.222Z,22.20
2018-03-21T07:35:32.654Z,19.83
2018-03-21T07:38:00.264Z,17.90
2018-03-21T07:40:28.156Z,20.00
2018-03-21T07:42:55.790Z,14.80
2018-03-21T07:45:23.441Z,15.33
2018-03-21T07:47:51.153Z,26.33
2018-03-21T07:50:18.938Z,15.80
2018-03-21T07:52:46.603Z,23.67
2018-03-21T07:55:26.608Z,17.33
2018-03-21T08:00:38.708Z,17.40
2018-03-21T08:03:09.813Z,17.63
2018-03-21T08:05:37.477Z,14.83
2018-03-21T08:08:05.257Z,14.10
2018-03-21T08:10:32.824Z,13.32
2018-03-21T08:13:00.385Z,12.10
2018-03-21T08:15:29.719Z,18.20
2018-03-21T08:17:58.412Z,19.00
2018-03-21T08:20:26.851Z,16.47
2018-03-21T08:22:54.515Z,17.67
2018-03-21T08:25:22.148Z,15.80
2018-03-21T08:27:49.716Z,17.10
2018-03-21T08:30:17.596Z,14.73
2018-03-21T08:32:45.144Z,17.83
2018-03-21T08:35:12.684Z,16.53
2018-03-21T08:37:40.266Z,15.83
2018-03-21T08:40:07.800Z,12.93
2018-03-21T08:42:37.636Z,14.00
2018-03-21T08:45:05.205Z,14.00
2018-03-21T08:47:32.748Z,15.48
2018-03-21T08:50:00.279Z,15.63
2018-03-21T08:52:28.629Z,16.80
2018-03-21T08:54:56.156Z,20.47
2018-03-21T08:57:23.691Z,14.45
2018-03-21T08:59:51.854Z,16.67
2018-03-21T09:02:19.428Z,17.98
2018-03-21T09:04:46.968Z,16.20
2018-03-21T09:07:15.511Z,18.33
2018-03-21T09:09:43.063Z,15.80
2018-03-21T09:12:10.857Z,17.07
2018-03-21T09:14:38.966Z,18.37
2018-03-21T09:17:07.132Z,20.55
2018-03-21T09:19:35.440Z,20.67
2018-03-21T09:22:03.005Z,24.00
2018-03-21T09:24:30.545Z,16.27
2018-03-21T09:26:58.100Z,20.07
2018-03-21T09:29:25.676Z,21.80
2018-03-21T09:31:53.208Z,23.33
2018-03-21T09:34:20.776Z,19.80
2018-03-21T09:36:49.104Z,20.70
2018-03-21T09:39:16.643Z,22.50
2018-03-21T09:41:44.179Z,28.57
2018-03-21T09:44:11.746Z,20.33
2018-03-21T09:46:39.332Z,25.10
2018-03-21T09:49:06.863Z,24.60
2018-03-21T09:51:34.477Z,21.90
2018-03-21T09:54:02.043Z,23.00
2018-03-21T09:56:29.667Z,21.85
2018-03-21T09:58:57.460Z,29.53
2018-03-21T10:01:24.997Z,22.67
2018-03-21T10:03:52.612Z,22.70
2018-03-21T10:06:20.952Z,20.67
2018-03-21T10:08:48.543Z,24.20
2018-03-21T10:11:16.472Z,21.87
2018-03-21T10:13:44.027Z,20.63
2018-03-21T10:16:11.561Z,24.25
2018-03-21T10:18:39.345Z,23.30
2018-03-21T10:21:07.605Z,22.10
2018-03-21T10:23:35.136Z,23.57
2018-03-21T10:26:02.676Z,21.33
2018-03-21T10:28:30.256Z,21.27
2018-03-21T10:30:58.559Z,22.30
2018-03-21T10:33:26.863Z,22.83
2018-03-21T10:35:54.432Z,27.20
2018-03-21T10:38:21.977Z,23.40
2018-03-21T10:40:49.513Z,23.73
2018-03-21T10:43:17.407Z,26.67
2018-03-21T10:45:44.958Z,26.23
2018-03-21T10:48:12.499Z,25.30
2018-03-21T10:50:40.358Z,25.23
2018-03-21T10:53:07.897Z,24.60
2018-03-21T10:55:36.203Z,25.60
2018-03-21T10:58:03.776Z,25.40
2018-03-21T11:00:31.327Z,30.98
2018-03-21T11:03:02.669Z,24.30
2018-03-21T11:05:30.994Z,25.27
2018-03-21T11:07:58.540Z,26.23
2018-03-21T11:10:26.083Z,22.40
2018-03-21T11:12:53.644Z,23.70
2018-03-21T11:15:21.187Z,24.43
2018-03-21T11:17:48.724Z,23.87
2018-03-21T11:20:17.565Z,22.27
2018-03-21T11:22:45.618Z,23.27
2018-03-21T11:25:24.176Z,23.15
2018-03-21T11:30:15.462Z,23.85
2018-03-21T11:32:43.027Z,23.20
2018-03-21T11:35:10.564Z,24.10
2018-03-21T11:37:38.114Z,24.40
2018-03-21T11:40:06.448Z,20.17
2018-03-21T11:42:34.004Z,21.50
2018-03-21T11:45:01.592Z,26.67
2018-03-21T11:47:29.155Z,19.70
2018-03-21T11:49:56.692Z,21.80
2018-03-21T11:52:24.257Z,20.00
2018-03-21T11:54:51.839Z,20.57
2018-03-21T11:57:20.152Z,20.83
2018-03-21T11:59:47.693Z,24.60
2018-03-21T12:02:16.328Z,20.23
2018-03-21T12:04:43.876Z,18.50
2018-03-21T12:07:11.439Z,16.37
2018-03-21T12:09:39.632Z,20.77
2018-03-21T12:12:07.176Z,17.60
2018-03-21T12:14:34.757Z,15.70
2018-03-21T12:17:02.354Z,18.13
2018-03-21T12:19:30.225Z,20.13
2018-03-21T12:21:58.414Z,24.10
2018-03-21T12:24:25.992Z,19.00
2018-03-21T12:26:53.544Z,19.52
2018-03-21T12:29:21.084Z,22.30
2018-03-21T12:31:49.048Z,25.90
2018-03-21T12:34:16.845Z,22.50
2018-03-21T12:36:44.400Z,25.47
2018-03-21T12:39:16.552Z,22.23
2018-03-21T12:41:44.115Z,23.03
2018-03-21T12:44:11.670Z,22.67
2018-03-21T12:46:39.232Z,19.87
2018-03-21T12:49:06.783Z,24.30
2018-03-21T12:51:34.345Z,21.70
2018-03-21T12:54:02.409Z,22.90
2018-03-21T12:56:29.956Z,20.60
2018-03-21T12:58:58.293Z,18.87
2018-03-21T13:01:25.884Z,16.95
2018-03-21T13:03:53.436Z,18.75
2018-03-21T13:06:20.983Z,15.77
2018-03-21T13:08:48.562Z,13.80
2018-03-21T13:11:16.412Z,14.70
2018-03-21T13:13:43.969Z,11.13
2018-03-21T13:16:11.765Z,13.20
2018-03-21T13:18:39.293Z,14.77
2018-03-21T13:21:06.873Z,13.80
2018-03-21T13:23:34.700Z,18.40
2018-03-21T13:26:02.264Z,19.77
2018-03-21T13:28:29.834Z,16.20
2018-03-21T13:30:57.424Z,16.47
2018-03-21T13:33:25.022Z,19.40
2018-03-21T13:35:52.580Z,19.23
2018-03-21T13:38:20.756Z,20.00
2018-03-21T13:40:48.307Z,21.20
2018-03-21T13:43:16.458Z,20.17
2018-03-21T13:45:44.799Z,19.23
2018-03-21T13:48:12.426Z,20.97
2018-03-21T13:50:39.991Z,20.90
2018-03-21T13:53:08.830Z,21.55
2018-03-21T13:55:37.132Z,22.47
2018-03-21T13:58:04.755Z,21.70
2018-03-21T14:00:32.532Z,17.87
2018-03-21T14:03:00.114Z,15.00
2018-03-21T14:05:27.736Z,15.00
2018-03-21T14:07:55.297Z,16.67
2018-03-21T14:10:22.852Z,15.47
2018-03-21T14:12:50.401Z,15.70
2018-03-21T14:15:18.675Z,16.23
2018-03-21T14:17:46.215Z,16.13
2018-03-21T14:20:25.759Z,17.75
2018-03-21T14:25:43.275Z,15.00
2018-03-21T14:28:13.686Z,16.53
2018-03-21T14:30:44.438Z,22.02
2018-03-21T14:33:12.028Z,16.57
2018-03-21T14:35:39.592Z,15.10
2018-03-21T14:38:07.152Z,14.20
2018-03-21T14:40:35.332Z,13.67
2018-03-21T14:43:02.942Z,13.57
2018-03-21T14:45:30.507Z,14.18
2018-03-21T14:47:58.864Z,16.07
2018-03-21T14:50:26.425Z,16.52
2018-03-21T14:52:54.812Z,14.90
2018-03-21T14:55:22.390Z,15.40
2018-03-21T14:57:49.950Z,15.77
2018-03-21T15:00:17.526Z,16.00
2018-03-21T15:02:45.698Z,20.03
2018-03-21T15:05:14.701Z,17.65
2018-03-21T15:07:43.598Z,17.43
2018-03-21T15:10:11.231Z,18.47
2018-03-21T15:12:40.624Z,15.40
2018-03-21T15:15:08.946Z,25.87
2018-03-21T15:17:36.644Z,18.33
2018-03-21T15:20:04.201Z,16.87
2018-03-21T15:22:31.760Z,19.13
2018-03-21T15:24:59.759Z,20.00
2018-03-21T15:27:27.828Z,20.05
2018-03-21T15:29:56.140Z,20.03
2018-03-21T15:32:23.709Z,16.73
2018-03-21T15:34:51.262Z,20.60
2018-03-21T15:37:19.574Z,19.17
2018-03-21T15:39:47.138Z,18.60
2018-03-21T15:42:15.498Z,20.35
2018-03-21T15:44:43.058Z,20.50
2018-03-21T15:47:11.028Z,21.77
2018-03-21T15:49:38.589Z,19.27
2018-03-21T15:52:06.136Z,17.57
2018-03-21T15:54:34.499Z,19.10
2018-03-21T15:57:02.036Z,21.53
2018-03-21T15:59:29.579Z,18.20
2018-03-21T16:01:57.168Z,19.97
2018-03-21T16:04:24.718Z,17.83
2018-03-21T16:06:52.261Z,19.53
2018-03-21T16:09:21.327Z,19.67
2018-03-21T16:11:48.870Z,19.30
2018-03-21T16:14:16.417Z,16.58
2018-03-21T16:16:44.038Z,15.33
2018-03-21T16:19:12.568Z,28.65
2018-03-21T16:21:40.111Z,19.90
2018-03-21T16:24:08.115Z,17.47
2018-03-21T16:26:36.457Z,17.57
2018-03-21T16:29:04.511Z,21.33
2018-03-21T16:31:33.332Z,21.00
2018-03-21T16:34:00.912Z,16.93
2018-03-21T16:36:28.459Z,23.73
2018-03-21T16:38:56.892Z,18.57
2018-03-21T16:41:26.908Z,19.73
2018-03-21T16:43:54.454Z,19.58
2018-03-21T16:46:22.022Z,17.40
2018-03-21T16:48:50.340Z,17.02
2018-03-21T16:51:17.894Z,17.43
2018-03-21T16:53:45.861Z,18.17
2018-03-21T16:56:25.850Z,17.48
2018-03-21T17:02:02.341Z,15.83
2018-03-21T17:04:29.884Z,15.53
2018-03-21T17:06:57.419Z,14.17
2018-03-21T17:09:25.197Z,15.77
2018-03-21T17:11:52.964Z,15.87
2018-03-21T17:14:20.490Z,14.13
2018-03-21T17:16:48.836Z,15.80
2018-03-21T17:19:16.492Z,16.37
2018-03-21T17:21:44.039Z,18.07
2018-03-21T17:24:11.608Z,14.70
2018-03-21T17:26:39.184Z,14.63
2018-03-21T17:29:07.392Z,14.33
2018-03-21T17:31:35.473Z,20.13
2018-03-21T17:34:03.068Z,16.37
2018-03-21T17:36:30.656Z,14.48
2018-03-21T17:38:58.228Z,16.97
2018-03-21T17:41:25.768Z,14.03
2018-03-21T17:43:53.317Z,21.53
2018-03-21T17:46:20.959Z,13.97
2018-03-21T17:48:48.500Z,17.02
2018-03-21T17:51:16.506Z,48.33
2018-03-21T17:53:44.110Z,46.03
2018-03-21T17:56:11.685Z,29.87
2018-03-21T17:58:39.265Z,22.30
2018-03-21T18:01:06.815Z,19.37
2018-03-21T18:03:35.145Z,18.00
2018-03-21T18:06:02.708Z,20.13
2018-03-21T18:08:30.301Z,21.43
2018-03-21T18:10:57.854Z,23.87
2018-03-21T18:13:25.404Z,21.03
2018-03-21T18:15:54.056Z,24.47
2018-03-21T18:18:21.592Z,20.90
2018-03-21T18:20:49.140Z,20.47
2018-03-21T18:23:16.740Z,20.53
2018-03-21T18:25:45.375Z,28.40
2018-03-21T18:28:25.099Z,21.23
2018-03-21T18:33:27.344Z,29.60
2018-03-21T18:35:54.882Z,22.93
2018-03-21T18:38:22.444Z,21.48
2018-03-21T18:40:50.008Z,17.80
2018-03-21T18:43:17.548Z,55.90
2018-03-21T18:45:45.132Z,23.33
2018-03-21T18:48:13.652Z,16.23
2018-03-21T18:50:41.230Z,24.20
2018-03-21T18:53:09.628Z,32.80
2018-03-21T18:55:37.396Z,27.00
2018-03-21T18:58:04.956Z,39.23
2018-03-21T19:00:32.537Z,33.25
2018-03-21T19:03:00.149Z,30.43
2018-03-21T19:05:27.768Z,31.30
2018-03-21T19:07:55.373Z,25.90
2018-03-21T19:10:22.963Z,34.90
2018-03-21T19:12:52.958Z,39.20
2018-03-21T19:15:20.476Z,28.10
2018-03-21T19:17:48.456Z,28.70
2018-03-21T19:20:16.459Z,39.10
2018-03-21T19:22:44.076Z,36.40
2018-03-21T19:25:11.669Z,33.17
2018-03-21T19:27:39.298Z,30.63
2018-03-21T19:30:06.870Z,33.63
2018-03-21T19:32:34.470Z,37.00
2018-03-21T19:35:03.375Z,52.60
2018-03-21T19:37:30.925Z,66.03
2018-03-21T19:39:58.517Z,68.32
2018-03-21T19:42:26.073Z,50.58
2018-03-21T19:44:53.628Z,63.10
2018-03-21T19:47:21.227Z,60.43
2018-03-21T19:49:48.767Z,65.90
2018-03-21T19:52:17.245Z,46.78
2018-03-21T19:54:44.844Z,53.23
2018-03-21T19:57:12.399Z,45.53
2018-03-21T19:59:39.951Z,44.40
2018-03-21T20:02:07.652Z,39.60
2018-03-21T20:04:36.008Z,48.47
2018-03-21T20:07:04.338Z,49.78
2018-03-21T20:09:32.677Z,52.57
2018-03-21T20:12:00.228Z,39.90
2018-03-21T20:14:28.531Z,44.35
2018-03-21T20:16:56.099Z,36.73
2018-03-21T20:19:23.645Z,41.23
2018-03-21T20:21:51.956Z,42.50
2018-03-21T20:24:20.117Z,52.05
2018-03-21T20:26:47.655Z,68.30
2018-03-21T20:29:17.296Z,70.80
2018-03-21T20:31:44.903Z,55.87
2018-03-21T20:34:12.448Z,46.58
2018-03-21T20:36:40.558Z,42.70
2018-03-21T20:39:08.896Z,39.23
2018-03-21T20:41:37.687Z,38.97
2018-03-21T20:44:05.244Z,38.97
2018-03-21T20:46:32.857Z,37.42
2018-03-21T20:49:01.544Z,39.03
2018-03-21T20:51:29.101Z,44.13
2018-03-21T20:53:56.697Z,39.73
2018-03-21T20:56:24.279Z,45.17
2018-03-21T20:58:52.618Z,43.40
2018-03-21T21:01:20.952Z,45.40
2018-03-21T21:03:49.269Z,39.15
2018-03-21T21:06:16.824Z,40.47
2018-03-21T21:08:44.448Z,40.90
2018-03-21T21:11:13.837Z,46.20
2018-03-21T21:13:41.389Z,44.77
2018-03-21T21:16:08.956Z,41.00
2018-03-21T21:18:36.500Z,43.00
2018-03-21T21:21:04.044Z,40.07
2018-03-21T21:23:31.616Z,40.37
2018-03-21T21:25:59.214Z,51.33
2018-03-21T21:28:26.732Z,44.23
2018-03-21T21:30:54.605Z,43.63
2018-03-21T21:33:22.148Z,47.30
2018-03-21T21:35:49.736Z,46.63
2018-03-21T21:38:17.612Z,46.23
2018-03-21T21:40:45.266Z,47.73
2018-03-21T21:43:13.742Z,44.50
2018-03-21T21:45:41.482Z,51.73
2018-03-21T21:48:09.436Z,43.57
2018-03-21T21:50:37.056Z,44.97
2018-03-21T21:53:05.065Z,41.70
2018-03-21T21:55:32.652Z,44.78
2018-03-21T21:58:00.204Z,42.80
2018-03-21T22:00:27.831Z,47.10
2018-03-21T22:02:55.384Z,41.95
2018-03-21T22:05:22.924Z,47.83
2018-03-21T22:07:50.549Z,48.30
2018-03-21T22:10:18.457Z,47.30
2018-03-21T22:12:45.995Z,49.80
2018-03-21T22:15:15.860Z,45.63
2018-03-21T22:17:43.403Z,43.65
2018-03-21T22:20:11.717Z,37.77
2018-03-21T22:22:39.289Z,39.17
2018-03-21T22:25:06.827Z,40.23
2018-03-21T22:27:34.383Z,44.90
2018-03-21T22:30:01.963Z,45.03
2018-03-21T22:32:29.519Z,44.13
2018-03-21T22:34:57.061Z,47.63
2018-03-21T22:37:25.082Z,41.70
2018-03-21T22:42:55.538Z,46.37
2018-03-21T22:45:23.211Z,42.93
2018-03-21T22:47:51.492Z,51.13
2018-03-21T22:50:19.072Z,49.07
2018-03-21T22:52:46.639Z,46.23
2018-03-21T22:55:16.328Z,54.25
2018-03-21T22:57:44.555Z,43.90
2018-03-21T23:00:12.105Z,46.08
2018-03-21T23:02:39.643Z,42.93
2018-03-21T23:05:07.260Z,57.93
2018-03-21T23:07:35.596Z,51.57
2018-03-21T23:10:03.227Z,50.70
2018-03-21T23:12:30.817Z,38.83
2018-03-21T23:14:58.374Z,44.93
2018-03-21T23:17:25.937Z,43.97
2018-03-21T23:19:53.594Z,52.62
2018-03-21T23:22:21.165Z,43.77
2018-03-21T23:24:48.781Z,41.10
2018-03-21T23:27:16.488Z,46.73
2018-03-21T23:29:44.086Z,45.07
2018-03-21T23:32:11.680Z,44.47
2018-03-21T23:34:39.273Z,41.63
2018-03-21T23:37:06.837Z,39.73
2018-03-21T23:39:34.407Z,41.92
2018-03-21T23:42:02.217Z,40.30
2018-03-21T23:44:29.960Z,42.33
2018-03-21T23:46:58.344Z,41.17
2018-03-21T23:49:25.938Z,40.67
2018-03-21T23:51:53.538Z,41.42
2018-03-21T23:54:21.113Z,45.53
2018-03-21T23:56:48.706Z,42.53
2018-03-21T23:59:16.449Z,42.25
